Hauptseite
METAR-TAF:

METAR-TAF

Flughäfen :

Verkehrslandeplatz Hof-Plauen

Hof, Deutschland

Breite: 50-19N, Länge: 011-53E, Höhe: 567 m

Beobachtung

Neuester Wetterbericht von vor 7 Stunden und 16 Minuten, um 16:50 UTC
Wind 13 kt aus Nord/Nordost
Temperatur 12°C
Luftfeuchtigkeit 50%
Luftdruck 1022 hPa
Sichtweite 10 km oder mehr
Leicht bewölkt in der Höhe von 4300 ft
Durchbrochene Bewölkung in der Höhe von 5900 ft

METAR: EDQM 301650Z 03013KT 9999 FEW043 BKN059 12/02 Q1022

Zeit: 02:06 (00:06 UTC)

Prognose

Neuester Wetterbericht von vor 7 Stunden und 6 Minuten, um 17:00 UTC
Gültige Prognose vom 30 um 18 UTC bis 31 um 03 UTC
Wind 8 kt aus Nord/Nordost
Sichtweite 10 km oder mehr
Leicht bewölkt in der Höhe von 4500 ft
Übergehend zu
vom 30 um 19 UTC bis 30 um 21 UTC
Wind 3 kt aus Nord

TAF: EDQM 301700Z 3018/3103 03008KT 9999 FEW045 BECMG 3019/3021 35003KT

Wetterbeobachtungen und Prognosen von mehr als 4000 Flughäfen (METAR und TAF Bericht).

Die verfügbaren Stationen werden durch gelbe und rote Markierungen auf der Karte dargestellt.

Führen Sie die Maus auf sie, um den Namen der Station zu sehen.

Darauf klicken, um die Beobachtung von Wetterbeobachtungen und Prognosen zu sehen.

Um die Karte zu ändern : klicken Sie auf den grünen Tasten mit einem schwarzen Kreuz Zum Vergrößern, auf den grünen Button mit einem Gedankenstrich zu verkleinern, oder auf die grünen Pfeile für benachbarte Karten.


METAR-TAF: